UAL2245 KIAH-KMCO
Flight info
| Callsign | UAL2245 |
|---|---|
| Flight time | 1h 52m |
| Altitude | 37000 |
| Route | MMUGS4 LLA LEV Y280 CHRGE PRICY5 |
| Aircraft | B738/M-SDE2E3FGHIRWXY/LB1 |
Departure
| Time | 2026-04-25 12:33 |
|---|---|
| Airport | George Bush Intercontinental Airport (KIAH) |
Arrival
| Time | 2026-04-25 14:25 |
|---|---|
| Airport | Orlando International Airport (KMCO) |
| Time | Latitude | Longitude | Altitude | Speed | Heading |
|---|---|---|---|---|---|
| 2026-04-25 12:08 | 29.98495 | -95.33798 | 106 ft | 0 kts | 292° |
| 2026-04-25 12:18 | 29.98494 | -95.33795 | 106 ft | 3 kts | 292° |
| 2026-04-25 12:18 | 29.98482 | -95.33768 | 106 ft | 4 kts | 308° |
| 2026-04-25 12:18 | 29.98462 | -95.33749 | 106 ft | 4 kts | 337° |
| 2026-04-25 12:18 | 29.98440 | -95.33735 | 106 ft | 4 kts | 308° |
| 2026-04-25 12:19 | 29.98439 | -95.33696 | 106 ft | 4 kts | 207° |
| 2026-04-25 12:19 | 29.98466 | -95.33692 | 106 ft | 3 kts | 180° |
| 2026-04-25 12:19 | 29.98469 | -95.33692 | 106 ft | 0 kts | 180° |
| 2026-04-25 12:23 | 29.98461 | -95.33692 | 106 ft | 2 kts | 180° |
| 2026-04-25 12:23 | 29.98437 | -95.33692 | 106 ft | 5 kts | 180° |
| 2026-04-25 12:23 | 29.98400 | -95.33692 | 106 ft | 6 kts | 180° |
| 2026-04-25 12:24 | 29.98376 | -95.33693 | 105 ft | 6 kts | 187° |
| 2026-04-25 12:24 | 29.98328 | -95.33750 | 106 ft | 15 kts | 251° |
| 2026-04-25 12:24 | 29.98319 | -95.33878 | 105 ft | 16 kts | 270° |
| 2026-04-25 12:24 | 29.98313 | -95.34006 | 106 ft | 16 kts | 260° |
| 2026-04-25 12:25 | 29.98307 | -95.34128 | 107 ft | 15 kts | 268° |
| 2026-04-25 12:25 | 29.98304 | -95.34246 | 106 ft | 14 kts | 269° |
| 2026-04-25 12:25 | 29.98302 | -95.34360 | 106 ft | 14 kts | 263° |
| 2026-04-25 12:25 | 29.98267 | -95.34461 | 105 ft | 13 kts | 247° |
| 2026-04-25 12:26 | 29.98255 | -95.34529 | 106 ft | 13 kts | 271° |
| 2026-04-25 12:26 | 29.98256 | -95.34631 | 106 ft | 13 kts | 269° |
| 2026-04-25 12:26 | 29.98255 | -95.34731 | 105 ft | 12 kts | 269° |
| 2026-04-25 12:26 | 29.98256 | -95.34830 | 106 ft | 12 kts | 271° |
| 2026-04-25 12:27 | 29.98257 | -95.34924 | 105 ft | 12 kts | 269° |
| 2026-04-25 12:27 | 29.98257 | -95.35018 | 106 ft | 12 kts | 269° |
| 2026-04-25 12:27 | 29.98271 | -95.35114 | 105 ft | 14 kts | 303° |
| 2026-04-25 12:27 | 29.98351 | -95.35184 | 105 ft | 15 kts | 330° |
| 2026-04-25 12:28 | 29.98439 | -95.35239 | 106 ft | 14 kts | 332° |
| 2026-04-25 12:28 | 29.98524 | -95.35290 | 106 ft | 13 kts | 332° |
| 2026-04-25 12:28 | 29.98606 | -95.35339 | 105 ft | 13 kts | 333° |
| 2026-04-25 12:28 | 29.98684 | -95.35387 | 106 ft | 13 kts | 331° |
| 2026-04-25 12:29 | 29.98760 | -95.35435 | 105 ft | 12 kts | 331° |
| 2026-04-25 12:29 | 29.98835 | -95.35480 | 106 ft | 12 kts | 332° |
| 2026-04-25 12:29 | 29.98909 | -95.35525 | 106 ft | 12 kts | 332° |
| 2026-04-25 12:29 | 29.98992 | -95.35575 | 106 ft | 14 kts | 332° |
| 2026-04-25 12:30 | 29.99074 | -95.35637 | 106 ft | 14 kts | 304° |
| 2026-04-25 12:30 | 29.99095 | -95.35743 | 106 ft | 13 kts | 275° |
| 2026-04-25 12:30 | 29.99099 | -95.35847 | 106 ft | 13 kts | 269° |
| 2026-04-25 12:30 | 29.99072 | -95.35957 | 105 ft | 15 kts | 245° |
| 2026-04-25 12:31 | 29.99011 | -95.36039 | 105 ft | 14 kts | 185° |
| 2026-04-25 12:31 | 29.98926 | -95.35992 | 105 ft | 13 kts | 153° |
| 2026-04-25 12:31 | 29.98843 | -95.35991 | 107 ft | 13 kts | 223° |
| 2026-04-25 12:31 | 29.98795 | -95.36077 | 107 ft | 13 kts | 239° |
| 2026-04-25 12:32 | 29.98774 | -95.36117 | 107 ft | 3 kts | 236° |
| 2026-04-25 12:32 | 29.98753 | -95.36120 | 107 ft | 4 kts | 158° |
| 2026-04-25 12:32 | 29.98730 | -95.36108 | 107 ft | 4 kts | 154° |
| 2026-04-25 12:32 | 29.98639 | -95.36054 | 106 ft | 46 kts | 152° |
| 2026-04-25 12:33 | 29.98086 | -95.35715 | 105 ft | 129 kts | 152° |
| 2026-04-25 12:33 | 29.97121 | -95.35111 | 381 ft | 171 kts | 151° |
| 2026-04-25 12:33 | 29.96327 | -95.34601 | 1178 ft | 169 kts | 144° |
| 2026-04-25 12:33 | 29.95471 | -95.33552 | 1871 ft | 192 kts | 127° |
| 2026-04-25 12:34 | 29.94594 | -95.32260 | 2164 ft | 218 kts | 128° |
| 2026-04-25 12:34 | 29.93617 | -95.30833 | 2579 ft | 231 kts | 129° |
| 2026-04-25 12:34 | 29.92600 | -95.29350 | 3138 ft | 242 kts | 130° |
| 2026-04-25 12:34 | 29.91886 | -95.28309 | 3351 ft | 256 kts | 130° |
| 2026-04-25 12:35 | 29.90375 | -95.26115 | 3959 ft | 264 kts | 130° |
| 2026-04-25 12:35 | 29.89223 | -95.24444 | 3995 ft | 267 kts | 130° |
| 2026-04-25 12:35 | 29.88095 | -95.22733 | 4078 ft | 269 kts | 128° |
| 2026-04-25 12:35 | 29.86999 | -95.20962 | 4698 ft | 272 kts | 127° |
| 2026-04-25 12:36 | 29.85886 | -95.19154 | 4963 ft | 279 kts | 127° |
| 2026-04-25 12:36 | 29.84764 | -95.17342 | 4990 ft | 276 kts | 127° |
| 2026-04-25 12:36 | 29.83652 | -95.15553 | 4989 ft | 273 kts | 127° |
| 2026-04-25 12:36 | 29.82623 | -95.13730 | 4984 ft | 274 kts | 113° |
| 2026-04-25 12:37 | 29.82245 | -95.11572 | 5182 ft | 279 kts | 94° |
| 2026-04-25 12:37 | 29.82170 | -95.09315 | 5945 ft | 283 kts | 93° |
| 2026-04-25 12:37 | 29.82099 | -95.07040 | 6835 ft | 285 kts | 93° |
| 2026-04-25 12:37 | 29.82017 | -95.04753 | 7626 ft | 289 kts | 93° |
| 2026-04-25 12:38 | 29.81927 | -95.02424 | 8400 ft | 293 kts | 93° |
| 2026-04-25 12:38 | 29.81833 | -95.00063 | 9160 ft | 297 kts | 93° |
| 2026-04-25 12:38 | 29.81711 | -94.97678 | 9885 ft | 301 kts | 97° |
| 2026-04-25 12:38 | 29.81395 | -94.95249 | 10409 ft | 315 kts | 101° |
| 2026-04-25 12:39 | 29.80974 | -94.92676 | 10572 ft | 339 kts | 101° |
| 2026-04-25 12:39 | 29.80508 | -94.89919 | 10747 ft | 361 kts | 101° |
| 2026-04-25 12:39 | 29.80029 | -94.87019 | 11118 ft | 374 kts | 101° |
| 2026-04-25 12:39 | 29.79552 | -94.84049 | 11675 ft | 381 kts | 100° |
| 2026-04-25 12:40 | 29.79078 | -94.81033 | 12333 ft | 384 kts | 100° |
| 2026-04-25 12:40 | 29.78598 | -94.77949 | 12974 ft | 388 kts | 100° |
| 2026-04-25 12:40 | 29.78119 | -94.74866 | 13547 ft | 394 kts | 100° |
| 2026-04-25 12:40 | 29.77632 | -94.71740 | 14143 ft | 399 kts | 100° |
| 2026-04-25 12:41 | 29.77159 | -94.68620 | 14738 ft | 403 kts | 99° |
| 2026-04-25 12:41 | 29.76683 | -94.65380 | 15319 ft | 408 kts | 99° |
| 2026-04-25 12:41 | 29.76212 | -94.62151 | 15887 ft | 412 kts | 99° |
| 2026-04-25 12:41 | 29.75736 | -94.58882 | 16445 ft | 416 kts | 99° |
| 2026-04-25 12:42 | 29.75251 | -94.55577 | 16993 ft | 421 kts | 99° |
| 2026-04-25 12:42 | 29.74926 | -94.53374 | 17354 ft | 424 kts | 99° |
| 2026-04-25 12:42 | 29.74259 | -94.48873 | 18066 ft | 429 kts | 99° |
| 2026-04-25 12:42 | 29.73755 | -94.45479 | 18550 ft | 433 kts | 99° |
| 2026-04-25 12:43 | 29.73245 | -94.42041 | 19029 ft | 438 kts | 99° |
| 2026-04-25 12:43 | 29.72727 | -94.38573 | 19509 ft | 442 kts | 99° |
| 2026-04-25 12:43 | 29.71715 | -94.31542 | 20479 ft | 449 kts | 97° |
| 2026-04-25 12:44 | 29.71309 | -94.27965 | 20933 ft | 453 kts | 96° |
| 2026-04-25 12:44 | 29.70933 | -94.24357 | 21409 ft | 455 kts | 96° |
| 2026-04-25 12:44 | 29.70164 | -94.17081 | 22283 ft | 462 kts | 96° |
| 2026-04-25 12:45 | 29.69757 | -94.13394 | 22680 ft | 466 kts | 97° |
| 2026-04-25 12:45 | 29.69340 | -94.09686 | 23064 ft | 469 kts | 97° |
| 2026-04-25 12:45 | 29.68540 | -94.02196 | 23819 ft | 475 kts | 93° |
| 2026-04-25 12:46 | 29.68388 | -93.98392 | 24200 ft | 477 kts | 89° |
| 2026-04-25 12:46 | 29.68373 | -93.94571 | 24548 ft | 480 kts | 88° |
| 2026-04-25 12:46 | 29.68406 | -93.90731 | 24897 ft | 482 kts | 88° |
| 2026-04-25 12:46 | 29.68440 | -93.86864 | 25265 ft | 485 kts | 88° |
| 2026-04-25 12:47 | 29.68457 | -93.82980 | 25610 ft | 487 kts | 88° |
| 2026-04-25 12:47 | 29.68450 | -93.79068 | 25927 ft | 490 kts | 89° |
| 2026-04-25 12:47 | 29.68425 | -93.75089 | 26241 ft | 493 kts | 89° |
| 2026-04-25 12:47 | 29.68388 | -93.71139 | 26575 ft | 495 kts | 89° |
| 2026-04-25 12:48 | 29.68345 | -93.67176 | 26879 ft | 497 kts | 89° |
| 2026-04-25 12:48 | 29.68298 | -93.63189 | 27187 ft | 499 kts | 89° |
| 2026-04-25 12:48 | 29.68250 | -93.59193 | 27480 ft | 502 kts | 89° |
| 2026-04-25 12:48 | 29.68202 | -93.55177 | 27774 ft | 504 kts | 89° |
| 2026-04-25 12:49 | 29.68153 | -93.51144 | 28072 ft | 505 kts | 89° |
| 2026-04-25 12:49 | 29.68104 | -93.47092 | 28340 ft | 508 kts | 89° |
| 2026-04-25 12:49 | 29.68054 | -93.43028 | 28605 ft | 510 kts | 89° |
| 2026-04-25 12:49 | 29.68003 | -93.38945 | 28893 ft | 511 kts | 89° |
| 2026-04-25 12:50 | 29.67951 | -93.34851 | 29166 ft | 513 kts | 89° |
| 2026-04-25 12:50 | 29.67896 | -93.30742 | 29394 ft | 516 kts | 89° |
| 2026-04-25 12:50 | 29.67841 | -93.26610 | 29636 ft | 518 kts | 89° |
| 2026-04-25 12:50 | 29.67784 | -93.22466 | 29889 ft | 519 kts | 89° |
| 2026-04-25 12:51 | 29.67725 | -93.18319 | 30205 ft | 519 kts | 89° |
| 2026-04-25 12:51 | 29.67665 | -93.14176 | 30613 ft | 516 kts | 89° |
| 2026-04-25 12:51 | 29.67604 | -93.10058 | 31000 ft | 514 kts | 89° |
| 2026-04-25 12:51 | 29.67542 | -93.05952 | 31305 ft | 514 kts | 89° |
| 2026-04-25 12:52 | 29.67479 | -93.01845 | 31595 ft | 514 kts | 89° |
| 2026-04-25 12:52 | 29.67415 | -92.97751 | 31946 ft | 512 kts | 89° |
| 2026-04-25 12:52 | 29.67351 | -92.93829 | 32290 ft | 510 kts | 89° |
| 2026-04-25 12:52 | 29.67284 | -92.89761 | 32629 ft | 509 kts | 89° |
| 2026-04-25 12:53 | 29.67219 | -92.85866 | 32900 ft | 508 kts | 89° |
| 2026-04-25 12:53 | 29.67151 | -92.81807 | 33198 ft | 507 kts | 89° |
| 2026-04-25 12:53 | 29.67082 | -92.77765 | 33485 ft | 506 kts | 89° |
| 2026-04-25 12:53 | 29.67021 | -92.74255 | 33729 ft | 505 kts | 89° |
| 2026-04-25 12:54 | 29.66949 | -92.70217 | 34033 ft | 504 kts | 89° |
| 2026-04-25 12:54 | 29.66877 | -92.66201 | 34342 ft | 502 kts | 89° |
| 2026-04-25 12:54 | 29.66802 | -92.62139 | 34579 ft | 502 kts | 89° |
| 2026-04-25 12:54 | 29.66729 | -92.58173 | 34782 ft | 502 kts | 89° |
| 2026-04-25 12:55 | 29.66652 | -92.54108 | 35037 ft | 502 kts | 89° |
| 2026-04-25 12:55 | 29.66627 | -92.52805 | 35122 ft | 501 kts | 89° |
| 2026-04-25 12:55 | 29.66497 | -92.46105 | 35517 ft | 500 kts | 90° |
| 2026-04-25 12:55 | 29.66423 | -92.42324 | 35703 ft | 501 kts | 90° |
| 2026-04-25 12:56 | 29.66346 | -92.38579 | 35944 ft | 499 kts | 90° |
| 2026-04-25 12:56 | 29.65983 | -92.34576 | 36246 ft | 498 kts | 100° |
| 2026-04-25 12:56 | 29.65257 | -92.30681 | 36395 ft | 499 kts | 103° |
| 2026-04-25 12:56 | 29.64407 | -92.26808 | 36497 ft | 501 kts | 104° |
| 2026-04-25 12:57 | 29.63516 | -92.22935 | 36688 ft | 500 kts | 104° |
| 2026-04-25 12:57 | 29.62633 | -92.19074 | 36896 ft | 497 kts | 104° |
| 2026-04-25 12:57 | 29.60950 | -92.11402 | 36891 ft | 492 kts | 103° |
| 2026-04-25 12:58 | 29.59621 | -92.05081 | 36883 ft | 488 kts | 103° |
| 2026-04-25 12:58 | 29.58042 | -91.97475 | 36892 ft | 484 kts | 103° |
| 2026-04-25 12:59 | 29.56479 | -91.89968 | 36897 ft | 482 kts | 103° |
| 2026-04-25 12:59 | 29.54916 | -91.82513 | 36907 ft | 487 kts | 103° |
| 2026-04-25 13:00 | 29.53574 | -91.76138 | 36938 ft | 492 kts | 103° |
| 2026-04-25 13:00 | 29.51684 | -91.67181 | 36931 ft | 496 kts | 103° |
| 2026-04-25 13:01 | 29.50046 | -91.59450 | 36937 ft | 498 kts | 103° |
| 2026-04-25 13:01 | 29.48418 | -91.51788 | 36919 ft | 490 kts | 103° |
| 2026-04-25 13:02 | 29.46803 | -91.44216 | 36936 ft | 488 kts | 103° |
| 2026-04-25 13:02 | 29.45185 | -91.36642 | 36937 ft | 488 kts | 103° |
| 2026-04-25 13:03 | 29.43567 | -91.29089 | 36935 ft | 488 kts | 103° |
| 2026-04-25 13:03 | 29.41942 | -91.21534 | 36952 ft | 488 kts | 103° |
| 2026-04-25 13:04 | 29.40309 | -91.13966 | 36959 ft | 490 kts | 103° |
| 2026-04-25 13:04 | 29.38669 | -91.06380 | 36966 ft | 491 kts | 103° |
| 2026-04-25 13:05 | 29.37021 | -90.98776 | 36966 ft | 493 kts | 103° |
| 2026-04-25 13:05 | 29.35360 | -90.91142 | 36973 ft | 494 kts | 103° |
| 2026-04-25 13:06 | 29.33681 | -90.83446 | 36978 ft | 495 kts | 103° |
| 2026-04-25 13:06 | 29.32003 | -90.75777 | 36986 ft | 496 kts | 103° |
| 2026-04-25 13:07 | 29.30322 | -90.68114 | 36982 ft | 496 kts | 104° |
| 2026-04-25 13:07 | 29.28637 | -90.60461 | 36975 ft | 495 kts | 103° |
| 2026-04-25 13:08 | 29.26949 | -90.52815 | 36968 ft | 494 kts | 104° |
| 2026-04-25 13:08 | 29.25262 | -90.45195 | 36967 ft | 493 kts | 104° |
| 2026-04-25 13:09 | 29.23575 | -90.37594 | 36960 ft | 492 kts | 104° |
| 2026-04-25 13:09 | 29.21890 | -90.30021 | 36962 ft | 490 kts | 104° |
| 2026-04-25 13:10 | 29.20204 | -90.22472 | 36961 ft | 489 kts | 104° |
| 2026-04-25 13:10 | 29.18518 | -90.14938 | 36987 ft | 488 kts | 104° |
| 2026-04-25 13:11 | 29.16849 | -90.07406 | 36989 ft | 488 kts | 103° |
| 2026-04-25 13:11 | 29.15308 | -89.99838 | 36987 ft | 489 kts | 102° |
| 2026-04-25 13:12 | 29.13794 | -89.92253 | 36989 ft | 489 kts | 102° |
| 2026-04-25 13:12 | 29.12508 | -89.85888 | 36983 ft | 490 kts | 102° |
| 2026-04-25 13:13 | 29.10693 | -89.77016 | 36975 ft | 491 kts | 102° |
| 2026-04-25 13:13 | 29.09127 | -89.69416 | 36973 ft | 491 kts | 103° |
| 2026-04-25 13:14 | 29.07554 | -89.61808 | 36967 ft | 492 kts | 102° |
| 2026-04-25 13:14 | 29.05985 | -89.54196 | 36969 ft | 492 kts | 102° |
| 2026-04-25 13:15 | 29.04407 | -89.46580 | 36963 ft | 493 kts | 102° |
| 2026-04-25 13:15 | 29.02819 | -89.38958 | 36966 ft | 493 kts | 103° |
| 2026-04-25 13:16 | 29.01228 | -89.31330 | 36964 ft | 494 kts | 103° |
| 2026-04-25 13:16 | 28.99630 | -89.23701 | 36962 ft | 494 kts | 103° |
| 2026-04-25 13:17 | 28.98030 | -89.16077 | 36967 ft | 494 kts | 103° |
| 2026-04-25 13:17 | 28.96427 | -89.08459 | 36961 ft | 494 kts | 103° |
| 2026-04-25 13:18 | 28.94817 | -89.00836 | 36964 ft | 494 kts | 103° |
| 2026-04-25 13:18 | 28.93203 | -88.93220 | 36962 ft | 494 kts | 103° |
| 2026-04-25 13:19 | 28.91585 | -88.85604 | 36964 ft | 493 kts | 103° |
| 2026-04-25 13:19 | 28.90502 | -88.80516 | 36961 ft | 493 kts | 103° |
| 2026-04-25 13:20 | 28.88340 | -88.70400 | 36961 ft | 493 kts | 103° |
| 2026-04-25 13:20 | 28.86390 | -88.62842 | 36965 ft | 493 kts | 107° |
| 2026-04-25 13:21 | 28.84264 | -88.55403 | 36962 ft | 493 kts | 108° |
| 2026-04-25 13:21 | 28.82155 | -88.47958 | 36963 ft | 493 kts | 107° |
| 2026-04-25 13:22 | 28.80080 | -88.40501 | 36963 ft | 493 kts | 107° |
| 2026-04-25 13:23 | 28.76974 | -88.29315 | 36965 ft | 494 kts | 107° |
| 2026-04-25 13:23 | 28.74895 | -88.21861 | 36960 ft | 494 kts | 107° |
| 2026-04-25 13:24 | 28.72808 | -88.14396 | 36969 ft | 494 kts | 107° |
| 2026-04-25 13:24 | 28.70715 | -88.06929 | 36961 ft | 495 kts | 107° |
| 2026-04-25 13:25 | 28.68611 | -87.99462 | 36977 ft | 496 kts | 107° |
| 2026-04-25 13:25 | 28.66497 | -87.91988 | 36980 ft | 496 kts | 107° |
| 2026-04-25 13:26 | 28.64377 | -87.84502 | 36971 ft | 497 kts | 107° |
| 2026-04-25 13:26 | 28.62253 | -87.77013 | 36971 ft | 497 kts | 107° |
| 2026-04-25 13:27 | 28.60110 | -87.69478 | 36977 ft | 497 kts | 107° |
| 2026-04-25 13:27 | 28.57976 | -87.61989 | 36974 ft | 498 kts | 107° |
| 2026-04-25 13:28 | 28.55834 | -87.54494 | 36970 ft | 498 kts | 107° |
| 2026-04-25 13:28 | 28.53692 | -87.47012 | 36971 ft | 497 kts | 107° |
| 2026-04-25 13:29 | 28.51548 | -87.39541 | 36975 ft | 497 kts | 107° |
| 2026-04-25 13:29 | 28.49401 | -87.32076 | 36975 ft | 496 kts | 107° |
| 2026-04-25 13:30 | 28.46543 | -87.22171 | 36982 ft | 495 kts | 107° |
| 2026-04-25 13:31 | 28.43326 | -87.11051 | 36981 ft | 493 kts | 107° |
| 2026-04-25 13:31 | 28.41178 | -87.03652 | 36981 ft | 493 kts | 107° |
| 2026-04-25 13:32 | 28.39014 | -86.96214 | 36974 ft | 492 kts | 107° |
| 2026-04-25 13:32 | 28.36877 | -86.88883 | 36968 ft | 492 kts | 107° |
| 2026-04-25 13:33 | 28.34712 | -86.81470 | 36972 ft | 491 kts | 107° |
| 2026-04-25 13:33 | 28.32561 | -86.74119 | 36975 ft | 490 kts | 107° |
| 2026-04-25 13:34 | 28.30408 | -86.66776 | 36969 ft | 490 kts | 107° |
| 2026-04-25 13:34 | 28.28264 | -86.59438 | 36972 ft | 490 kts | 107° |
| 2026-04-25 13:35 | 28.26117 | -86.52098 | 36972 ft | 490 kts | 107° |
| 2026-04-25 13:35 | 28.23967 | -86.44764 | 36972 ft | 490 kts | 107° |
| 2026-04-25 13:36 | 28.21808 | -86.37424 | 36972 ft | 491 kts | 107° |
| 2026-04-25 13:36 | 28.19646 | -86.30086 | 36968 ft | 491 kts | 107° |
| 2026-04-25 13:37 | 28.17478 | -86.22748 | 36968 ft | 491 kts | 107° |
| 2026-04-25 13:37 | 28.15306 | -86.15409 | 36965 ft | 492 kts | 107° |
| 2026-04-25 13:38 | 28.13128 | -86.08062 | 36961 ft | 492 kts | 107° |
| 2026-04-25 13:38 | 28.10946 | -86.00726 | 36961 ft | 491 kts | 107° |
| 2026-04-25 13:39 | 28.08760 | -85.93390 | 36964 ft | 492 kts | 107° |
| 2026-04-25 13:39 | 28.06556 | -85.86010 | 36963 ft | 492 kts | 107° |
| 2026-04-25 13:40 | 28.04359 | -85.78669 | 36962 ft | 492 kts | 107° |
| 2026-04-25 13:40 | 28.02164 | -85.71343 | 36957 ft | 492 kts | 107° |
| 2026-04-25 13:41 | 27.99960 | -85.64012 | 36955 ft | 492 kts | 107° |
| 2026-04-25 13:41 | 27.97752 | -85.56680 | 36949 ft | 492 kts | 107° |
| 2026-04-25 13:42 | 27.95540 | -85.49350 | 36956 ft | 493 kts | 107° |
| 2026-04-25 13:42 | 27.93321 | -85.42020 | 36952 ft | 493 kts | 107° |
| 2026-04-25 13:43 | 27.91100 | -85.34691 | 36946 ft | 493 kts | 107° |
| 2026-04-25 13:43 | 27.88872 | -85.27351 | 36944 ft | 493 kts | 107° |
| 2026-04-25 13:44 | 27.87247 | -85.19862 | 36952 ft | 490 kts | 98° |
| 2026-04-25 13:44 | 27.86068 | -85.12277 | 36942 ft | 490 kts | 97° |
| 2026-04-25 13:45 | 27.84851 | -85.04698 | 36947 ft | 490 kts | 98° |
| 2026-04-25 13:45 | 27.83575 | -84.97136 | 36947 ft | 490 kts | 98° |
| 2026-04-25 13:46 | 27.82287 | -84.89578 | 36957 ft | 490 kts | 98° |
| 2026-04-25 13:46 | 27.81145 | -84.81943 | 36932 ft | 487 kts | 87° |
| 2026-04-25 13:47 | 27.81464 | -84.74368 | 36953 ft | 482 kts | 82° |
| 2026-04-25 13:47 | 27.81947 | -84.66819 | 36957 ft | 482 kts | 83° |
| 2026-04-25 13:48 | 27.82364 | -84.59277 | 36953 ft | 481 kts | 83° |
| 2026-04-25 13:48 | 27.82728 | -84.51730 | 36957 ft | 481 kts | 84° |
| 2026-04-25 13:49 | 27.83076 | -84.44191 | 36953 ft | 480 kts | 84° |
| 2026-04-25 13:49 | 27.83422 | -84.36677 | 36954 ft | 478 kts | 84° |
| 2026-04-25 13:50 | 27.83764 | -84.29188 | 36954 ft | 477 kts | 84° |
| 2026-04-25 13:50 | 27.84101 | -84.21718 | 36952 ft | 475 kts | 84° |
| 2026-04-25 13:51 | 27.84435 | -84.14275 | 36955 ft | 474 kts | 84° |
| 2026-04-25 13:51 | 27.84764 | -84.06855 | 36954 ft | 472 kts | 84° |
| 2026-04-25 13:52 | 27.85087 | -83.99451 | 36954 ft | 471 kts | 84° |
| 2026-04-25 13:52 | 27.85248 | -83.95744 | 36662 ft | 476 kts | 84° |
| 2026-04-25 13:52 | 27.85413 | -83.91941 | 36113 ft | 476 kts | 84° |
| 2026-04-25 13:52 | 27.85571 | -83.88209 | 35494 ft | 476 kts | 84° |
| 2026-04-25 13:53 | 27.85727 | -83.84473 | 34836 ft | 477 kts | 84° |
| 2026-04-25 13:53 | 27.85884 | -83.80718 | 34165 ft | 478 kts | 84° |
| 2026-04-25 13:53 | 27.86040 | -83.76957 | 33469 ft | 479 kts | 84° |
| 2026-04-25 13:53 | 27.86193 | -83.73205 | 32771 ft | 478 kts | 84° |
| 2026-04-25 13:54 | 27.86347 | -83.69442 | 32059 ft | 479 kts | 84° |
| 2026-04-25 13:54 | 27.86498 | -83.65695 | 31535 ft | 476 kts | 84° |
| 2026-04-25 13:54 | 27.86647 | -83.61972 | 31000 ft | 472 kts | 84° |
| 2026-04-25 13:54 | 27.86795 | -83.58286 | 30486 ft | 468 kts | 84° |
| 2026-04-25 13:55 | 27.86941 | -83.54626 | 29979 ft | 464 kts | 85° |
| 2026-04-25 13:55 | 27.87084 | -83.51000 | 29466 ft | 460 kts | 85° |
| 2026-04-25 13:55 | 27.87226 | -83.47404 | 28967 ft | 455 kts | 85° |
| 2026-04-25 13:55 | 27.87365 | -83.43850 | 28443 ft | 452 kts | 85° |
| 2026-04-25 13:56 | 27.87502 | -83.40316 | 27933 ft | 448 kts | 85° |
| 2026-04-25 13:56 | 27.87637 | -83.36810 | 27424 ft | 445 kts | 85° |
| 2026-04-25 13:56 | 27.87771 | -83.33329 | 26921 ft | 442 kts | 85° |
| 2026-04-25 13:56 | 27.87903 | -83.29872 | 26410 ft | 439 kts | 85° |
| 2026-04-25 13:57 | 27.88033 | -83.26437 | 25932 ft | 436 kts | 85° |
| 2026-04-25 13:57 | 27.88070 | -83.25283 | 25839 ft | 435 kts | 86° |
| 2026-04-25 13:57 | 27.88118 | -83.19562 | 25472 ft | 442 kts | 88° |
| 2026-04-25 13:57 | 27.88105 | -83.16069 | 25224 ft | 445 kts | 88° |
| 2026-04-25 13:58 | 27.88088 | -83.12582 | 24969 ft | 442 kts | 88° |
| 2026-04-25 13:58 | 27.88077 | -83.09080 | 24720 ft | 439 kts | 88° |
| 2026-04-25 13:58 | 27.88072 | -83.05635 | 24476 ft | 437 kts | 88° |
| 2026-04-25 13:58 | 27.88071 | -83.02214 | 24238 ft | 435 kts | 88° |
| 2026-04-25 13:59 | 27.88073 | -82.98801 | 24000 ft | 434 kts | 88° |
| 2026-04-25 13:59 | 27.88075 | -82.95392 | 23760 ft | 432 kts | 88° |
| 2026-04-25 13:59 | 27.88076 | -82.92002 | 23529 ft | 431 kts | 88° |
| 2026-04-25 13:59 | 27.88077 | -82.88608 | 23283 ft | 431 kts | 88° |
| 2026-04-25 14:00 | 27.88077 | -82.85231 | 23048 ft | 430 kts | 88° |
| 2026-04-25 14:00 | 27.88075 | -82.81850 | 22813 ft | 430 kts | 88° |
| 2026-04-25 14:00 | 27.88073 | -82.78476 | 22574 ft | 429 kts | 88° |
| 2026-04-25 14:00 | 27.88070 | -82.75114 | 22336 ft | 427 kts | 88° |
| 2026-04-25 14:01 | 27.88066 | -82.71768 | 22100 ft | 425 kts | 88° |
| 2026-04-25 14:01 | 27.88061 | -82.68427 | 21864 ft | 424 kts | 88° |
| 2026-04-25 14:01 | 27.88045 | -82.65105 | 21633 ft | 421 kts | 89° |
| 2026-04-25 14:01 | 27.88001 | -82.61806 | 21398 ft | 419 kts | 89° |
| 2026-04-25 14:02 | 27.87946 | -82.58519 | 21166 ft | 417 kts | 90° |
| 2026-04-25 14:02 | 27.87908 | -82.56308 | 21014 ft | 416 kts | 89° |
| 2026-04-25 14:02 | 27.87838 | -82.52000 | 20719 ft | 413 kts | 89° |
| 2026-04-25 14:02 | 27.87821 | -82.50899 | 20637 ft | 413 kts | 89° |
| 2026-04-25 14:03 | 27.87756 | -82.46580 | 20329 ft | 410 kts | 89° |
| 2026-04-25 14:03 | 27.87707 | -82.43367 | 20103 ft | 408 kts | 89° |
| 2026-04-25 14:03 | 27.88017 | -82.40228 | 19813 ft | 398 kts | 71° |
| 2026-04-25 14:03 | 27.89033 | -82.37350 | 19538 ft | 391 kts | 63° |
| 2026-04-25 14:04 | 27.90167 | -82.34572 | 19210 ft | 387 kts | 62° |
| 2026-04-25 14:04 | 27.91305 | -82.31842 | 18899 ft | 382 kts | 62° |
| 2026-04-25 14:04 | 27.92425 | -82.29138 | 18603 ft | 378 kts | 62° |
| 2026-04-25 14:04 | 27.93532 | -82.26439 | 18280 ft | 380 kts | 63° |
| 2026-04-25 14:05 | 27.94639 | -82.23711 | 17988 ft | 382 kts | 63° |
| 2026-04-25 14:05 | 27.95735 | -82.20992 | 17675 ft | 380 kts | 63° |
| 2026-04-25 14:05 | 27.96825 | -82.18273 | 17371 ft | 377 kts | 63° |
| 2026-04-25 14:05 | 27.97903 | -82.15578 | 17067 ft | 376 kts | 63° |
| 2026-04-25 14:06 | 27.98975 | -82.12894 | 16765 ft | 374 kts | 63° |
| 2026-04-25 14:06 | 28.00041 | -82.10222 | 16463 ft | 372 kts | 63° |
| 2026-04-25 14:06 | 28.01102 | -82.07564 | 16159 ft | 370 kts | 63° |
| 2026-04-25 14:06 | 28.02155 | -82.04921 | 15864 ft | 367 kts | 63° |
| 2026-04-25 14:07 | 28.03208 | -82.02278 | 15553 ft | 357 kts | 63° |
| 2026-04-25 14:07 | 28.04198 | -81.99789 | 15272 ft | 347 kts | 63° |
| 2026-04-25 14:07 | 28.05185 | -81.97308 | 14991 ft | 336 kts | 63° |
| 2026-04-25 14:07 | 28.06137 | -81.94938 | 14723 ft | 325 kts | 63° |
| 2026-04-25 14:08 | 28.07074 | -81.92641 | 14463 ft | 320 kts | 62° |
| 2026-04-25 14:08 | 28.08009 | -81.90350 | 14222 ft | 319 kts | 63° |
| 2026-04-25 14:08 | 28.08940 | -81.88074 | 13977 ft | 319 kts | 62° |
| 2026-04-25 14:08 | 28.09949 | -81.85836 | 13701 ft | 319 kts | 59° |
| 2026-04-25 14:09 | 28.10996 | -81.83619 | 13446 ft | 318 kts | 59° |
| 2026-04-25 14:09 | 28.12035 | -81.81412 | 13209 ft | 318 kts | 59° |
| 2026-04-25 14:09 | 28.13071 | -81.79200 | 12955 ft | 318 kts | 59° |
| 2026-04-25 14:09 | 28.13759 | -81.77729 | 12761 ft | 317 kts | 59° |
| 2026-04-25 14:10 | 28.15124 | -81.74805 | 12427 ft | 312 kts | 59° |
| 2026-04-25 14:10 | 28.16137 | -81.72634 | 12170 ft | 312 kts | 59° |
| 2026-04-25 14:10 | 28.17148 | -81.70467 | 11922 ft | 311 kts | 59° |
| 2026-04-25 14:10 | 28.18157 | -81.68303 | 11664 ft | 310 kts | 59° |
| 2026-04-25 14:11 | 28.19162 | -81.66143 | 11412 ft | 309 kts | 60° |
| 2026-04-25 14:11 | 28.20162 | -81.63995 | 11172 ft | 308 kts | 60° |
| 2026-04-25 14:11 | 28.21157 | -81.61855 | 10913 ft | 306 kts | 60° |
| 2026-04-25 14:11 | 28.22148 | -81.59721 | 10657 ft | 305 kts | 60° |
| 2026-04-25 14:12 | 28.23136 | -81.57597 | 10424 ft | 304 kts | 60° |
| 2026-04-25 14:12 | 28.24117 | -81.55484 | 10178 ft | 301 kts | 60° |
| 2026-04-25 14:12 | 28.25110 | -81.53410 | 9939 ft | 295 kts | 56° |
| 2026-04-25 14:12 | 28.26263 | -81.51542 | 9746 ft | 289 kts | 52° |
| 2026-04-25 14:13 | 28.27479 | -81.49728 | 9484 ft | 286 kts | 51° |
| 2026-04-25 14:13 | 28.28670 | -81.47936 | 9268 ft | 283 kts | 52° |
| 2026-04-25 14:13 | 28.29848 | -81.46132 | 9037 ft | 279 kts | 53° |
| 2026-04-25 14:13 | 28.30994 | -81.44364 | 8802 ft | 277 kts | 52° |
| 2026-04-25 14:14 | 28.32411 | -81.42943 | 8557 ft | 271 kts | 25° |
| 2026-04-25 14:14 | 28.34193 | -81.42375 | 8373 ft | 265 kts | 3° |
| 2026-04-25 14:14 | 28.36013 | -81.42348 | 8180 ft | 260 kts | 359° |
| 2026-04-25 14:14 | 28.37815 | -81.42371 | 7970 ft | 258 kts | 359° |
| 2026-04-25 14:15 | 28.39611 | -81.42392 | 7710 ft | 257 kts | 359° |
| 2026-04-25 14:15 | 28.40215 | -81.42396 | 7626 ft | 257 kts | 359° |
| 2026-04-25 14:15 | 28.43167 | -81.42408 | 7221 ft | 254 kts | 360° |
| 2026-04-25 14:15 | 28.44926 | -81.42411 | 6968 ft | 252 kts | 359° |
| 2026-04-25 14:16 | 28.46669 | -81.42414 | 6729 ft | 250 kts | 359° |
| 2026-04-25 14:16 | 28.48407 | -81.42413 | 6492 ft | 249 kts | 359° |
| 2026-04-25 14:16 | 28.50134 | -81.42413 | 6252 ft | 246 kts | 359° |
| 2026-04-25 14:16 | 28.51822 | -81.42414 | 6054 ft | 239 kts | 359° |
| 2026-04-25 14:17 | 28.53453 | -81.42432 | 5853 ft | 232 kts | 358° |
| 2026-04-25 14:17 | 28.55056 | -81.42467 | 5536 ft | 229 kts | 358° |
| 2026-04-25 14:17 | 28.56648 | -81.42496 | 5151 ft | 229 kts | 358° |
| 2026-04-25 14:17 | 28.58240 | -81.42532 | 4780 ft | 229 kts | 358° |
| 2026-04-25 14:18 | 28.59836 | -81.42572 | 4434 ft | 228 kts | 358° |
| 2026-04-25 14:18 | 28.61419 | -81.42614 | 4091 ft | 228 kts | 358° |
| 2026-04-25 14:18 | 28.63000 | -81.42657 | 3757 ft | 228 kts | 358° |
| 2026-04-25 14:18 | 28.64576 | -81.42697 | 3429 ft | 226 kts | 359° |
| 2026-04-25 14:19 | 28.66089 | -81.42296 | 3053 ft | 227 kts | 36° |
| 2026-04-25 14:19 | 28.67003 | -81.40873 | 3016 ft | 227 kts | 76° |
| 2026-04-25 14:19 | 28.67266 | -81.39113 | 3028 ft | 227 kts | 83° |
| 2026-04-25 14:19 | 28.67475 | -81.37406 | 3006 ft | 229 kts | 83° |
| 2026-04-25 14:20 | 28.67693 | -81.35587 | 2994 ft | 227 kts | 85° |
| 2026-04-25 14:20 | 28.67635 | -81.34399 | 2976 ft | 224 kts | 110° |
| 2026-04-25 14:20 | 28.66278 | -81.32804 | 2992 ft | 215 kts | 166° |
| 2026-04-25 14:20 | 28.64810 | -81.32796 | 3044 ft | 217 kts | 187° |
| 2026-04-25 14:21 | 28.63263 | -81.32891 | 3009 ft | 221 kts | 181° |
| 2026-04-25 14:21 | 28.61729 | -81.32885 | 3010 ft | 219 kts | 180° |
| 2026-04-25 14:21 | 28.60235 | -81.32867 | 2997 ft | 209 kts | 180° |
| 2026-04-25 14:21 | 28.58795 | -81.32850 | 2803 ft | 203 kts | 180° |
| 2026-04-25 14:22 | 28.57407 | -81.32836 | 2535 ft | 196 kts | 180° |
| 2026-04-25 14:22 | 28.56071 | -81.32819 | 2308 ft | 188 kts | 180° |
| 2026-04-25 14:22 | 28.54791 | -81.32807 | 2048 ft | 180 kts | 180° |
| 2026-04-25 14:22 | 28.53569 | -81.32792 | 1816 ft | 171 kts | 180° |
| 2026-04-25 14:23 | 28.52406 | -81.32779 | 1585 ft | 163 kts | 180° |
| 2026-04-25 14:23 | 28.51305 | -81.32768 | 1373 ft | 155 kts | 179° |
| 2026-04-25 14:23 | 28.50263 | -81.32756 | 1206 ft | 148 kts | 180° |
| 2026-04-25 14:23 | 28.49236 | -81.32745 | 996 ft | 146 kts | 180° |
| 2026-04-25 14:24 | 28.48233 | -81.32734 | 786 ft | 142 kts | 179° |
| 2026-04-25 14:24 | 28.47241 | -81.32723 | 622 ft | 144 kts | 180° |
| 2026-04-25 14:24 | 28.46242 | -81.32713 | 420 ft | 144 kts | 179° |
| 2026-04-25 14:24 | 28.45247 | -81.32702 | 223 ft | 142 kts | 179° |
| 2026-04-25 14:25 | 28.44272 | -81.32687 | 99 ft | 135 kts | 179° |
| 2026-04-25 14:25 | 28.43479 | -81.32683 | 99 ft | 92 kts | 179° |
| 2026-04-25 14:25 | 28.43124 | -81.32639 | 100 ft | 21 kts | 130° |
| 2026-04-25 14:25 | 28.43094 | -81.32597 | 100 ft | 19 kts | 129° |
| 2026-04-25 14:26 | 28.43059 | -81.32437 | 99 ft | 8 kts | 88° |
| 2026-04-25 14:26 | 28.43060 | -81.32381 | 97 ft | 7 kts | 91° |
| 2026-04-25 14:26 | 28.43059 | -81.32295 | 97 ft | 13 kts | 89° |
| 2026-04-25 14:26 | 28.43060 | -81.32190 | 99 ft | 13 kts | 89° |
| 2026-04-25 14:27 | 28.43061 | -81.32117 | 98 ft | 0 kts | 89° |
| 2026-04-25 14:27 | 28.43061 | -81.32111 | 98 ft | 1 kts | 91° |
| 2026-04-25 14:27 | 28.43061 | -81.32107 | 96 ft | 0 kts | 91° |
| 2026-04-25 14:28 | 28.43060 | -81.32074 | 97 ft | 9 kts | 91° |
| 2026-04-25 14:28 | 28.43062 | -81.32003 | 97 ft | 9 kts | 90° |
| 2026-04-25 14:28 | 28.43049 | -81.31930 | 99 ft | 12 kts | 112° |
| 2026-04-25 14:28 | 28.43006 | -81.31839 | 100 ft | 13 kts | 122° |
| 2026-04-25 14:29 | 28.42955 | -81.31755 | 97 ft | 13 kts | 128° |
| 2026-04-25 14:29 | 28.42881 | -81.31699 | 96 ft | 13 kts | 166° |
| 2026-04-25 14:29 | 28.42792 | -81.31680 | 94 ft | 13 kts | 167° |
| 2026-04-25 14:29 | 28.42712 | -81.31655 | 95 ft | 9 kts | 158° |
| 2026-04-25 14:30 | 28.42669 | -81.31605 | 94 ft | 9 kts | 129° |
| 2026-04-25 14:30 | 28.42638 | -81.31564 | 93 ft | 0 kts | 130° |
| 2026-04-25 14:30 | 28.42635 | -81.31560 | 93 ft | 0 kts | 130° |